sensor_id;sensor_type;location;lat;lon;timestamp;P1;durP1;ratioP1;P2;durP2;ratioP2
14203;SDS011;7185;51.854;6.622;2024-02-15T00:02:05;26.35;;;16.58;;
14203;SDS011;7185;51.854;6.622;2024-02-15T00:04:37;25.25;;;16.08;;
14203;SDS011;7185;51.854;6.622;2024-02-15T00:07:08;25.27;;;16.13;;
14203;SDS011;7185;51.854;6.622;2024-02-15T00:09:40;27.08;;;15.23;;
14203;SDS011;7185;51.854;6.622;2024-02-15T00:12:12;26.70;;;15.52;;
14203;SDS011;7185;51.854;6.622;2024-02-15T00:14:45;23.45;;;15.68;;
14203;SDS011;7185;51.854;6.622;2024-02-15T00:17:17;27.58;;;15.90;;
14203;SDS011;7185;51.854;6.622;2024-02-15T00:19:49;26.02;;;15.60;;
14203;SDS011;7185;51.854;6.622;2024-02-15T00:22:21;26.50;;;15.82;;
14203;SDS011;7185;51.854;6.622;2024-02-15T00:24:52;27.15;;;16.58;;
14203;SDS011;7185;51.854;6.622;2024-02-15T00:27:24;29.55;;;16.67;;
14203;SDS011;7185;51.854;6.622;2024-02-15T00:29:57;28.95;;;16.30;;
14203;SDS011;7185;51.854;6.622;2024-02-15T00:32:29;27.88;;;17.45;;
14203;SDS011;7185;51.854;6.622;2024-02-15T00:35:00;30.17;;;17.67;;
14203;SDS011;7185;51.854;6.622;2024-02-15T00:37:32;26.35;;;17.42;;
14203;SDS011;7185;51.854;6.622;2024-02-15T00:40:04;30.05;;;17.33;;
14203;SDS011;7185;51.854;6.622;2024-02-15T00:42:37;26.73;;;15.88;;
14203;SDS011;7185;51.854;6.622;2024-02-15T00:45:10;25.77;;;16.00;;
14203;SDS011;7185;51.854;6.622;2024-02-15T00:47:42;30.85;;;17.25;;
14203;SDS011;7185;51.854;6.622;2024-02-15T00:50:14;25.77;;;16.52;;
14203;SDS011;7185;51.854;6.622;2024-02-15T00:52:46;27.58;;;16.83;;
14203;SDS011;7185;51.854;6.622;2024-02-15T00:55:17;24.70;;;16.15;;
14203;SDS011;7185;51.854;6.622;2024-02-15T00:57:49;27.83;;;16.85;;
14203;SDS011;7185;51.854;6.622;2024-02-15T01:00:22;25.48;;;16.10;;
14203;SDS011;7185;51.854;6.622;2024-02-15T01:02:54;25.83;;;16.35;;
14203;SDS011;7185;51.854;6.622;2024-02-15T01:05:26;29.00;;;17.35;;
14203;SDS011;7185;51.854;6.622;2024-02-15T01:07:58;27.77;;;17.65;;
14203;SDS011;7185;51.854;6.622;2024-02-15T01:10:30;29.95;;;18.08;;
14203;SDS011;7185;51.854;6.622;2024-02-15T01:13:04;28.80;;;17.75;;
14203;SDS011;7185;51.854;6.622;2024-02-15T01:15:37;27.85;;;17.05;;
14203;SDS011;7185;51.854;6.622;2024-02-15T01:18:11;28.80;;;17.50;;
14203;SDS011;7185;51.854;6.622;2024-02-15T01:20:43;32.17;;;17.63;;
14203;SDS011;7185;51.854;6.622;2024-02-15T01:23:15;26.35;;;17.33;;
14203;SDS011;7185;51.854;6.622;2024-02-15T01:25:47;27.88;;;17.30;;
14203;SDS011;7185;51.854;6.622;2024-02-15T01:28:19;31.67;;;17.27;;
14203;SDS011;7185;51.854;6.622;2024-02-15T01:30:52;29.17;;;17.70;;
14203;SDS011;7185;51.854;6.622;2024-02-15T01:33:24;27.85;;;16.83;;
14203;SDS011;7185;51.854;6.622;2024-02-15T01:35:57;27.48;;;17.75;;
14203;SDS011;7185;51.854;6.622;2024-02-15T01:38:29;30.58;;;17.75;;
14203;SDS011;7185;51.854;6.622;2024-02-15T01:41:01;29.85;;;17.83;;
14203;SDS011;7185;51.854;6.622;2024-02-15T01:43:33;32.67;;;18.95;;
14203;SDS011;7185;51.854;6.622;2024-02-15T01:46:07;28.50;;;17.08;;
14203;SDS011;7185;51.854;6.622;2024-02-15T01:48:46;32.33;;;18.88;;
14203;SDS011;7185;51.854;6.622;2024-02-15T01:51:18;33.25;;;18.13;;
14203;SDS011;7185;51.854;6.622;2024-02-15T01:53:50;30.20;;;18.23;;
14203;SDS011;7185;51.854;6.622;2024-02-15T01:56:25;32.85;;;18.02;;
14203;SDS011;7185;51.854;6.622;2024-02-15T01:58:59;34.15;;;17.50;;
14203;SDS011;7185;51.854;6.622;2024-02-15T02:01:33;28.48;;;16.98;;
14203;SDS011;7185;51.854;6.622;2024-02-15T02:04:05;30.83;;;17.80;;
14203;SDS011;7185;51.854;6.622;2024-02-15T02:06:38;31.88;;;18.30;;
14203;SDS011;7185;51.854;6.622;2024-02-15T02:09:11;31.35;;;17.08;;
14203;SDS011;7185;51.854;6.622;2024-02-15T02:11:44;34.92;;;18.10;;
14203;SDS011;7185;51.854;6.622;2024-02-15T02:14:18;34.40;;;17.27;;
14203;SDS011;7185;51.854;6.622;2024-02-15T02:16:52;32.50;;;17.58;;
14203;SDS011;7185;51.854;6.622;2024-02-15T02:19:25;28.27;;;15.80;;
14203;SDS011;7185;51.854;6.622;2024-02-15T02:21:58;31.60;;;16.02;;
14203;SDS011;7185;51.854;6.622;2024-02-15T02:24:30;32.78;;;18.10;;
14203;SDS011;7185;51.854;6.622;2024-02-15T02:29:42;24.83;;;15.30;;
14203;SDS011;7185;51.854;6.622;2024-02-15T02:32:16;32.33;;;14.48;;
14203;SDS011;7185;51.854;6.622;2024-02-15T02:34:48;30.90;;;14.63;;
14203;SDS011;7185;51.854;6.622;2024-02-15T02:37:19;31.35;;;14.52;;
14203;SDS011;7185;51.854;6.622;2024-02-15T02:39:51;27.55;;;14.80;;
14203;SDS011;7185;51.854;6.622;2024-02-15T02:42:25;22.02;;;12.65;;
14203;SDS011;7185;51.854;6.622;2024-02-15T02:44:57;28.30;;;12.82;;
14203;SDS011;7185;51.854;6.622;2024-02-15T02:47:35;25.88;;;12.98;;
14203;SDS011;7185;51.854;6.622;2024-02-15T02:50:07;28.85;;;13.60;;
14203;SDS011;7185;51.854;6.622;2024-02-15T02:52:39;29.67;;;14.70;;
14203;SDS011;7185;51.854;6.622;2024-02-15T02:55:11;24.15;;;14.63;;
14203;SDS011;7185;51.854;6.622;2024-02-15T02:57:44;28.73;;;15.73;;
14203;SDS011;7185;51.854;6.622;2024-02-15T03:00:16;26.33;;;14.38;;
14203;SDS011;7185;51.854;6.622;2024-02-15T03:02:50;37.25;;;16.40;;
14203;SDS011;7185;51.854;6.622;2024-02-15T03:05:22;28.33;;;15.00;;
14203;SDS011;7185;51.854;6.622;2024-02-15T03:07:54;28.40;;;13.57;;
14203;SDS011;7185;51.854;6.622;2024-02-15T03:10:27;27.77;;;13.18;;
14203;SDS011;7185;51.854;6.622;2024-02-15T03:13:00;35.60;;;13.95;;
14203;SDS011;7185;51.854;6.622;2024-02-15T03:15:32;29.77;;;13.60;;
14203;SDS011;7185;51.854;6.622;2024-02-15T03:18:04;22.20;;;12.57;;
14203;SDS011;7185;51.854;6.622;2024-02-15T03:20:37;23.73;;;13.18;;
14203;SDS011;7185;51.854;6.622;2024-02-15T03:23:09;25.08;;;12.70;;
14203;SDS011;7185;51.854;6.622;2024-02-15T03:25:41;20.70;;;12.20;;
14203;SDS011;7185;51.854;6.622;2024-02-15T03:28:14;23.75;;;12.07;;
14203;SDS011;7185;51.854;6.622;2024-02-15T03:30:47;26.00;;;12.52;;
14203;SDS011;7185;51.854;6.622;2024-02-15T03:33:18;33.88;;;12.63;;
14203;SDS011;7185;51.854;6.622;2024-02-15T03:35:56;23.60;;;11.95;;
14203;SDS011;7185;51.854;6.622;2024-02-15T03:38:30;23.45;;;12.75;;
14203;SDS011;7185;51.854;6.622;2024-02-15T03:41:01;30.38;;;12.48;;
14203;SDS011;7185;51.854;6.622;2024-02-15T03:43:35;27.05;;;11.57;;
14203;SDS011;7185;51.854;6.622;2024-02-15T03:46:07;22.20;;;11.38;;
14203;SDS011;7185;51.854;6.622;2024-02-15T03:48:42;24.65;;;11.82;;
14203;SDS011;7185;51.854;6.622;2024-02-15T03:51:16;26.70;;;11.60;;
14203;SDS011;7185;51.854;6.622;2024-02-15T03:53:48;21.67;;;11.63;;
14203;SDS011;7185;51.854;6.622;2024-02-15T03:56:22;21.10;;;12.68;;
14203;SDS011;7185;51.854;6.622;2024-02-15T03:58:55;27.55;;;12.02;;
14203;SDS011;7185;51.854;6.622;2024-02-15T04:01:27;20.65;;;11.93;;
14203;SDS011;7185;51.854;6.622;2024-02-15T04:04:02;25.88;;;13.43;;
14203;SDS011;7185;51.854;6.622;2024-02-15T04:06:35;22.17;;;11.23;;
14203;SDS011;7185;51.854;6.622;2024-02-15T04:09:07;26.58;;;12.95;;
14203;SDS011;7185;51.854;6.622;2024-02-15T04:11:40;23.70;;;12.35;;
14203;SDS011;7185;51.854;6.622;2024-02-15T04:14:14;25.98;;;12.27;;
14203;SDS011;7185;51.854;6.622;2024-02-15T04:16:48;25.30;;;12.40;;
14203;SDS011;7185;51.854;6.622;2024-02-15T04:19:21;26.92;;;12.68;;
14203;SDS011;7185;51.854;6.622;2024-02-15T04:21:53;24.25;;;12.80;;
14203;SDS011;7185;51.854;6.622;2024-02-15T04:24:26;27.08;;;11.85;;
14203;SDS011;7185;51.854;6.622;2024-02-15T04:26:58;23.30;;;11.82;;
14203;SDS011;7185;51.854;6.622;2024-02-15T04:29:31;24.88;;;12.60;;
14203;SDS011;7185;51.854;6.622;2024-02-15T04:32:03;25.02;;;11.73;;
14203;SDS011;7185;51.854;6.622;2024-02-15T04:34:38;21.88;;;11.68;;
14203;SDS011;7185;51.854;6.622;2024-02-15T04:37:10;25.77;;;12.55;;
14203;SDS011;7185;51.854;6.622;2024-02-15T04:39:44;24.35;;;10.98;;
14203;SDS011;7185;51.854;6.622;2024-02-15T04:42:17;26.38;;;12.52;;
14203;SDS011;7185;51.854;6.622;2024-02-15T04:44:50;25.92;;;10.90;;
14203;SDS011;7185;51.854;6.622;2024-02-15T04:47:24;20.63;;;11.10;;
14203;SDS011;7185;51.854;6.622;2024-02-15T04:49:56;25.90;;;12.15;;
14203;SDS011;7185;51.854;6.622;2024-02-15T04:52:28;25.15;;;11.30;;
14203;SDS011;7185;51.854;6.622;2024-02-15T04:55:00;17.30;;;10.18;;
14203;SDS011;7185;51.854;6.622;2024-02-15T04:57:34;20.10;;;10.23;;
14203;SDS011;7185;51.854;6.622;2024-02-15T05:00:09;17.58;;;10.07;;
14203;SDS011;7185;51.854;6.622;2024-02-15T05:02:43;19.05;;;10.75;;
14203;SDS011;7185;51.854;6.622;2024-02-15T05:05:17;24.92;;;10.30;;
14203;SDS011;7185;51.854;6.622;2024-02-15T05:07:48;26.40;;;10.60;;
14203;SDS011;7185;51.854;6.622;2024-02-15T05:10:21;22.92;;;10.40;;
14203;SDS011;7185;51.854;6.622;2024-02-15T05:12:52;22.70;;;9.40;;
14203;SDS011;7185;51.854;6.622;2024-02-15T05:15:27;23.38;;;10.43;;
14203;SDS011;7185;51.854;6.622;2024-02-15T05:17:59;23.33;;;9.65;;
14203;SDS011;7185;51.854;6.622;2024-02-15T05:20:32;18.15;;;9.00;;
14203;SDS011;7185;51.854;6.622;2024-02-15T05:23:05;22.55;;;8.90;;
14203;SDS011;7185;51.854;6.622;2024-02-15T05:25:36;21.13;;;8.93;;
14203;SDS011;7185;51.854;6.622;2024-02-15T05:28:09;17.17;;;8.05;;
14203;SDS011;7185;51.854;6.622;2024-02-15T05:30:42;19.73;;;8.32;;
14203;SDS011;7185;51.854;6.622;2024-02-15T05:33:15;18.77;;;7.80;;
14203;SDS011;7185;51.854;6.622;2024-02-15T05:35:47;16.83;;;8.05;;
14203;SDS011;7185;51.854;6.622;2024-02-15T05:38:21;13.57;;;7.10;;
14203;SDS011;7185;51.854;6.622;2024-02-15T05:40:53;17.50;;;7.05;;
14203;SDS011;7185;51.854;6.622;2024-02-15T05:43:24;16.77;;;7.07;;
14203;SDS011;7185;51.854;6.622;2024-02-15T05:45:58;16.52;;;7.88;;
14203;SDS011;7185;51.854;6.622;2024-02-15T05:48:30;16.02;;;6.93;;
14203;SDS011;7185;51.854;6.622;2024-02-15T05:51:02;13.52;;;6.25;;
14203;SDS011;7185;51.854;6.622;2024-02-15T05:53:35;15.57;;;7.97;;
14203;SDS011;7185;51.854;6.622;2024-02-15T05:56:07;19.17;;;7.43;;
14203;SDS011;7185;51.854;6.622;2024-02-15T05:58:41;15.05;;;5.30;;
14203;SDS011;7185;51.854;6.622;2024-02-15T06:01:15;17.15;;;7.40;;
14203;SDS011;7185;51.854;6.622;2024-02-15T06:03:47;16.75;;;6.32;;
14203;SDS011;7185;51.854;6.622;2024-02-15T06:06:19;12.63;;;6.10;;
14203;SDS011;7185;51.854;6.622;2024-02-15T06:08:51;18.98;;;6.10;;
14203;SDS011;7185;51.854;6.622;2024-02-15T06:11:23;11.23;;;5.50;;
14203;SDS011;7185;51.854;6.622;2024-02-15T06:13:55;15.18;;;6.57;;
14203;SDS011;7185;51.854;6.622;2024-02-15T06:16:28;20.88;;;5.95;;
14203;SDS011;7185;51.854;6.622;2024-02-15T06:19:00;14.00;;;6.68;;
14203;SDS011;7185;51.854;6.622;2024-02-15T06:21:32;21.27;;;6.97;;
14203;SDS011;7185;51.854;6.622;2024-02-15T06:24:04;19.02;;;7.07;;
14203;SDS011;7185;51.854;6.622;2024-02-15T06:26:36;17.02;;;6.55;;
14203;SDS011;7185;51.854;6.622;2024-02-15T06:29:08;16.25;;;7.05;;
14203;SDS011;7185;51.854;6.622;2024-02-15T06:31:58;17.60;;;7.40;;
14203;SDS011;7185;51.854;6.622;2024-02-15T06:34:47;20.58;;;7.70;;
14203;SDS011;7185;51.854;6.622;2024-02-15T06:37:36;19.70;;;8.43;;
14203;SDS011;7185;51.854;6.622;2024-02-15T06:40:26;18.42;;;8.82;;
14203;SDS011;7185;51.854;6.622;2024-02-15T06:42:59;15.68;;;7.30;;
14203;SDS011;7185;51.854;6.622;2024-02-15T06:45:31;17.02;;;7.75;;
14203;SDS011;7185;51.854;6.622;2024-02-15T06:48:21;16.30;;;6.97;;
14203;SDS011;7185;51.854;6.622;2024-02-15T06:50:53;12.68;;;6.88;;
14203;SDS011;7185;51.854;6.622;2024-02-15T06:53:24;12.65;;;6.65;;
14203;SDS011;7185;51.854;6.622;2024-02-15T06:55:56;19.58;;;6.35;;
14203;SDS011;7185;51.854;6.622;2024-02-15T06:58:28;19.90;;;6.53;;
14203;SDS011;7185;51.854;6.622;2024-02-15T07:00:59;11.77;;;6.32;;
14203;SDS011;7185;51.854;6.622;2024-02-15T07:03:32;16.15;;;6.65;;
14203;SDS011;7185;51.854;6.622;2024-02-15T07:06:04;16.58;;;6.70;;
14203;SDS011;7185;51.854;6.622;2024-02-15T07:08:39;16.75;;;6.35;;
14203;SDS011;7185;51.854;6.622;2024-02-15T07:11:11;17.75;;;6.57;;
14203;SDS011;7185;51.854;6.622;2024-02-15T07:13:43;11.73;;;6.95;;
14203;SDS011;7185;51.854;6.622;2024-02-15T07:16:14;17.02;;;7.60;;
14203;SDS011;7185;51.854;6.622;2024-02-15T07:18:48;17.25;;;6.47;;
14203;SDS011;7185;51.854;6.622;2024-02-15T07:21:20;16.10;;;5.93;;
14203;SDS011;7185;51.854;6.622;2024-02-15T07:23:56;18.83;;;5.80;;
14203;SDS011;7185;51.854;6.622;2024-02-15T07:26:27;14.30;;;6.10;;
14203;SDS011;7185;51.854;6.622;2024-02-15T07:28:59;12.85;;;6.40;;
14203;SDS011;7185;51.854;6.622;2024-02-15T07:31:31;14.15;;;6.97;;
14203;SDS011;7185;51.854;6.622;2024-02-15T07:34:05;14.70;;;6.85;;
14203;SDS011;7185;51.854;6.622;2024-02-15T07:36:37;12.95;;;7.28;;
14203;SDS011;7185;51.854;6.622;2024-02-15T07:39:12;14.07;;;6.32;;
14203;SDS011;7185;51.854;6.622;2024-02-15T07:41:53;13.07;;;6.85;;
14203;SDS011;7185;51.854;6.622;2024-02-15T07:44:26;19.02;;;7.28;;
14203;SDS011;7185;51.854;6.622;2024-02-15T07:47:00;15.13;;;6.50;;
14203;SDS011;7185;51.854;6.622;2024-02-15T07:49:33;16.83;;;6.60;;
14203;SDS011;7185;51.854;6.622;2024-02-15T07:52:06;15.70;;;6.38;;
14203;SDS011;7185;51.854;6.622;2024-02-15T07:54:39;17.23;;;6.30;;
14203;SDS011;7185;51.854;6.622;2024-02-15T07:57:11;12.45;;;6.28;;
14203;SDS011;7185;51.854;6.622;2024-02-15T07:59:43;18.35;;;6.32;;
14203;SDS011;7185;51.854;6.622;2024-02-15T08:02:15;14.82;;;5.85;;
14203;SDS011;7185;51.854;6.622;2024-02-15T08:04:53;17.08;;;5.30;;
14203;SDS011;7185;51.854;6.622;2024-02-15T08:07:25;18.00;;;5.80;;
14203;SDS011;7185;51.854;6.622;2024-02-15T08:10:02;18.65;;;5.75;;
14203;SDS011;7185;51.854;6.622;2024-02-15T08:12:34;13.40;;;5.85;;
14203;SDS011;7185;51.854;6.622;2024-02-15T08:15:06;10.63;;;5.10;;
14203;SDS011;7185;51.854;6.622;2024-02-15T08:17:42;10.07;;;4.88;;
14203;SDS011;7185;51.854;6.622;2024-02-15T08:20:17;11.32;;;4.82;;
14203;SDS011;7185;51.854;6.622;2024-02-15T08:22:51;11.60;;;4.93;;
14203;SDS011;7185;51.854;6.622;2024-02-15T08:25:23;11.45;;;4.97;;
14203;SDS011;7185;51.854;6.622;2024-02-15T08:27:58;10.60;;;4.15;;
14203;SDS011;7185;51.854;6.622;2024-02-15T08:30:36;12.23;;;4.80;;
14203;SDS011;7185;51.854;6.622;2024-02-15T08:33:08;7.70;;;4.03;;
14203;SDS011;7185;51.854;6.622;2024-02-15T08:35:43;12.05;;;5.32;;
14203;SDS011;7185;51.854;6.622;2024-02-15T08:38:14;8.18;;;4.30;;
14203;SDS011;7185;51.854;6.622;2024-02-15T08:40:47;9.90;;;4.72;;
14203;SDS011;7185;51.854;6.622;2024-02-15T08:43:19;11.73;;;4.65;;
14203;SDS011;7185;51.854;6.622;2024-02-15T08:45:50;12.90;;;5.82;;
14203;SDS011;7185;51.854;6.622;2024-02-15T08:48:23;12.85;;;5.85;;
14203;SDS011;7185;51.854;6.622;2024-02-15T08:50:56;11.25;;;4.95;;
14203;SDS011;7185;51.854;6.622;2024-02-15T08:53:28;14.07;;;4.70;;
14203;SDS011;7185;51.854;6.622;2024-02-15T08:55:59;12.57;;;4.88;;
14203;SDS011;7185;51.854;6.622;2024-02-15T08:58:31;12.32;;;5.28;;
14203;SDS011;7185;51.854;6.622;2024-02-15T09:01:03;11.90;;;5.22;;
14203;SDS011;7185;51.854;6.622;2024-02-15T09:03:35;12.68;;;4.88;;
14203;SDS011;7185;51.854;6.622;2024-02-15T09:06:08;7.80;;;4.82;;
14203;SDS011;7185;51.854;6.622;2024-02-15T09:08:40;18.63;;;6.25;;
14203;SDS011;7185;51.854;6.622;2024-02-15T09:11:12;12.20;;;5.50;;
14203;SDS011;7185;51.854;6.622;2024-02-15T09:13:44;12.95;;;5.80;;
14203;SDS011;7185;51.854;6.622;2024-02-15T09:16:17;12.55;;;5.32;;
14203;SDS011;7185;51.854;6.622;2024-02-15T09:18:51;13.02;;;5.32;;
14203;SDS011;7185;51.854;6.622;2024-02-15T09:21:25;11.13;;;5.00;;
14203;SDS011;7185;51.854;6.622;2024-02-15T09:23:58;11.88;;;5.22;;
14203;SDS011;7185;51.854;6.622;2024-02-15T09:26:30;10.25;;;5.28;;
14203;SDS011;7185;51.854;6.622;2024-02-15T09:29:02;13.30;;;5.97;;
14203;SDS011;7185;51.854;6.622;2024-02-15T09:31:33;13.57;;;5.40;;
14203;SDS011;7185;51.854;6.622;2024-02-15T09:34:09;15.90;;;5.95;;
14203;SDS011;7185;51.854;6.622;2024-02-15T09:39:16;15.30;;;5.38;;
14203;SDS011;7185;51.854;6.622;2024-02-15T09:41:48;14.40;;;5.68;;
14203;SDS011;7185;51.854;6.622;2024-02-15T09:44:25;13.43;;;5.90;;
14203;SDS011;7185;51.854;6.622;2024-02-15T09:47:01;12.07;;;5.63;;
14203;SDS011;7185;51.854;6.622;2024-02-15T09:49:39;14.77;;;6.10;;
14203;SDS011;7185;51.854;6.622;2024-02-15T09:52:12;13.73;;;5.72;;
14203;SDS011;7185;51.854;6.622;2024-02-15T09:54:46;14.98;;;5.57;;
14203;SDS011;7185;51.854;6.622;2024-02-15T09:57:18;10.77;;;5.55;;
14203;SDS011;7185;51.854;6.622;2024-02-15T09:59:51;11.32;;;5.60;;
14203;SDS011;7185;51.854;6.622;2024-02-15T10:02:23;13.18;;;5.47;;
14203;SDS011;7185;51.854;6.622;2024-02-15T10:04:56;17.13;;;6.53;;
14203;SDS011;7185;51.854;6.622;2024-02-15T10:07:29;16.45;;;6.50;;
14203;SDS011;7185;51.854;6.622;2024-02-15T10:10:13;16.48;;;7.65;;
14203;SDS011;7185;51.854;6.622;2024-02-15T10:12:47;18.85;;;8.30;;
14203;SDS011;7185;51.854;6.622;2024-02-15T10:15:28;19.48;;;10.13;;
14203;SDS011;7185;51.854;6.622;2024-02-15T10:18:04;21.48;;;10.88;;
14203;SDS011;7185;51.854;6.622;2024-02-15T10:20:39;15.85;;;8.10;;
14203;SDS011;7185;51.854;6.622;2024-02-15T10:23:15;16.45;;;7.53;;
14203;SDS011;7185;51.854;6.622;2024-02-15T10:25:50;16.95;;;8.05;;
14203;SDS011;7185;51.854;6.622;2024-02-15T10:28:25;20.00;;;8.40;;
14203;SDS011;7185;51.854;6.622;2024-02-15T10:30:59;20.55;;;9.00;;
14203;SDS011;7185;51.854;6.622;2024-02-15T10:33:42;20.48;;;9.13;;
14203;SDS011;7185;51.854;6.622;2024-02-15T10:36:14;19.40;;;9.13;;
14203;SDS011;7185;51.854;6.622;2024-02-15T10:38:48;20.52;;;8.88;;
14203;SDS011;7185;51.854;6.622;2024-02-15T10:41:20;23.83;;;10.00;;
14203;SDS011;7185;51.854;6.622;2024-02-15T10:43:52;23.55;;;9.60;;
14203;SDS011;7185;51.854;6.622;2024-02-15T10:46:24;28.05;;;10.10;;
14203;SDS011;7185;51.854;6.622;2024-02-15T10:48:56;25.55;;;10.75;;
14203;SDS011;7185;51.854;6.622;2024-02-15T10:51:27;26.63;;;10.55;;
14203;SDS011;7185;51.854;6.622;2024-02-15T10:54:02;25.58;;;9.80;;
14203;SDS011;7185;51.854;6.622;2024-02-15T10:56:37;22.90;;;10.43;;
14203;SDS011;7185;51.854;6.622;2024-02-15T10:59:16;28.33;;;9.68;;
14203;SDS011;7185;51.854;6.622;2024-02-15T11:01:49;17.20;;;8.27;;
14203;SDS011;7185;51.854;6.622;2024-02-15T11:04:24;25.23;;;9.52;;
14203;SDS011;7185;51.854;6.622;2024-02-15T11:07:02;22.60;;;9.75;;
14203;SDS011;7185;51.854;6.622;2024-02-15T11:09:39;20.83;;;9.15;;
14203;SDS011;7185;51.854;6.622;2024-02-15T11:12:16;19.42;;;10.13;;
14203;SDS011;7185;51.854;6.622;2024-02-15T11:14:48;22.20;;;10.05;;
14203;SDS011;7185;51.854;6.622;2024-02-15T11:23:25;18.27;;;9.23;;
14203;SDS011;7185;51.854;6.622;2024-02-15T11:25:59;19.20;;;8.75;;
14203;SDS011;7185;51.854;6.622;2024-02-15T11:28:37;17.23;;;8.85;;
14203;SDS011;7185;51.854;6.622;2024-02-15T11:34:41;19.25;;;9.02;;
14203;SDS011;7185;51.854;6.622;2024-02-15T11:43:46;16.17;;;9.32;;
14203;SDS011;7185;51.854;6.622;2024-02-15T11:46:26;18.07;;;9.53;;
14203;SDS011;7185;51.854;6.622;2024-02-15T11:49:02;18.55;;;9.90;;
14203;SDS011;7185;51.854;6.622;2024-02-15T11:51:35;15.52;;;7.60;;
14203;SDS011;7185;51.854;6.622;2024-02-15T11:54:12;21.92;;;8.02;;
14203;SDS011;7185;51.854;6.622;2024-02-15T11:56:51;14.63;;;7.57;;
14203;SDS011;7185;51.854;6.622;2024-02-15T11:59:40;17.58;;;6.82;;
14203;SDS011;7185;51.854;6.622;2024-02-15T12:02:23;15.48;;;6.82;;
14203;SDS011;7185;51.854;6.622;2024-02-15T12:05:13;18.05;;;8.23;;
14203;SDS011;7185;51.854;6.622;2024-02-15T12:07:58;21.13;;;8.05;;
14203;SDS011;7185;51.854;6.622;2024-02-15T12:10:56;19.63;;;8.18;;
14203;SDS011;7185;51.854;6.622;2024-02-15T12:13:49;15.65;;;8.27;;
14203;SDS011;7185;51.854;6.622;2024-02-15T12:16:40;14.55;;;6.68;;
14203;SDS011;7185;51.854;6.622;2024-02-15T12:19:29;15.13;;;6.25;;
14203;SDS011;7185;51.854;6.622;2024-02-15T12:22:01;14.60;;;6.05;;
14203;SDS011;7185;51.854;6.622;2024-02-15T12:24:34;14.57;;;5.93;;
14203;SDS011;7185;51.854;6.622;2024-02-15T12:27:06;11.90;;;5.80;;
14203;SDS011;7185;51.854;6.622;2024-02-15T12:29:38;11.75;;;5.95;;
14203;SDS011;7185;51.854;6.622;2024-02-15T12:32:11;11.15;;;4.65;;
14203;SDS011;7185;51.854;6.622;2024-02-15T12:34:51;11.07;;;5.25;;
14203;SDS011;7185;51.854;6.622;2024-02-15T12:37:23;13.55;;;5.25;;
14203;SDS011;7185;51.854;6.622;2024-02-15T12:39:55;14.82;;;5.40;;
14203;SDS011;7185;51.854;6.622;2024-02-15T12:42:46;9.88;;;4.93;;
14203;SDS011;7185;51.854;6.622;2024-02-15T12:45:18;11.05;;;4.38;;
14203;SDS011;7185;51.854;6.622;2024-02-15T12:47:53;10.82;;;4.15;;
14203;SDS011;7185;51.854;6.622;2024-02-15T12:50:27;10.30;;;5.22;;
14203;SDS011;7185;51.854;6.622;2024-02-15T12:53:00;11.98;;;5.30;;
14203;SDS011;7185;51.854;6.622;2024-02-15T12:55:33;9.77;;;5.07;;
14203;SDS011;7185;51.854;6.622;2024-02-15T12:58:06;10.50;;;5.18;;
14203;SDS011;7185;51.854;6.622;2024-02-15T13:00:43;13.50;;;5.15;;
14203;SDS011;7185;51.854;6.622;2024-02-15T13:03:17;12.27;;;5.10;;
14203;SDS011;7185;51.854;6.622;2024-02-15T13:05:48;13.93;;;6.07;;
14203;SDS011;7185;51.854;6.622;2024-02-15T13:08:21;14.20;;;5.82;;
14203;SDS011;7185;51.854;6.622;2024-02-15T13:10:53;14.65;;;5.28;;
14203;SDS011;7185;51.854;6.622;2024-02-15T13:13:26;13.63;;;5.25;;
14203;SDS011;7185;51.854;6.622;2024-02-15T13:15:58;12.88;;;5.20;;
14203;SDS011;7185;51.854;6.622;2024-02-15T13:18:32;14.30;;;5.20;;
14203;SDS011;7185;51.854;6.622;2024-02-15T13:21:04;10.75;;;5.25;;
14203;SDS011;7185;51.854;6.622;2024-02-15T13:23:49;12.75;;;4.95;;
14203;SDS011;7185;51.854;6.622;2024-02-15T13:26:21;13.02;;;4.60;;
14203;SDS011;7185;51.854;6.622;2024-02-15T13:28:55;12.02;;;5.03;;
14203;SDS011;7185;51.854;6.622;2024-02-15T13:31:27;11.52;;;4.47;;
14203;SDS011;7185;51.854;6.622;2024-02-15T13:34:02;10.23;;;4.22;;
14203;SDS011;7185;51.854;6.622;2024-02-15T13:36:34;8.15;;;4.43;;
14203;SDS011;7185;51.854;6.622;2024-02-15T13:39:06;10.52;;;4.78;;
14203;SDS011;7185;51.854;6.622;2024-02-15T13:41:48;9.38;;;4.40;;
14203;SDS011;7185;51.854;6.622;2024-02-15T13:44:20;11.98;;;4.20;;
14203;SDS011;7185;51.854;6.622;2024-02-15T13:46:53;11.23;;;4.80;;
14203;SDS011;7185;51.854;6.622;2024-02-15T13:49:27;12.95;;;4.18;;
14203;SDS011;7185;51.854;6.622;2024-02-15T13:52:00;8.95;;;4.07;;
14203;SDS011;7185;51.854;6.622;2024-02-15T13:54:33;9.98;;;3.85;;
14203;SDS011;7185;51.854;6.622;2024-02-15T13:57:05;12.80;;;4.53;;
14203;SDS011;7185;51.854;6.622;2024-02-15T13:59:37;10.25;;;3.83;;
14203;SDS011;7185;51.854;6.622;2024-02-15T14:02:09;10.98;;;4.18;;
14203;SDS011;7185;51.854;6.622;2024-02-15T14:04:42;8.88;;;3.92;;
14203;SDS011;7185;51.854;6.622;2024-02-15T14:07:14;11.45;;;4.22;;
14203;SDS011;7185;51.854;6.622;2024-02-15T14:09:46;10.32;;;4.00;;
14203;SDS011;7185;51.854;6.622;2024-02-15T14:12:18;9.20;;;3.58;;
14203;SDS011;7185;51.854;6.622;2024-02-15T14:14:50;8.02;;;3.25;;
14203;SDS011;7185;51.854;6.622;2024-02-15T14:17:21;10.95;;;3.85;;
14203;SDS011;7185;51.854;6.622;2024-02-15T14:19:55;11.27;;;4.13;;
14203;SDS011;7185;51.854;6.622;2024-02-15T14:22:27;7.97;;;4.35;;
14203;SDS011;7185;51.854;6.622;2024-02-15T14:24:59;11.50;;;3.78;;
14203;SDS011;7185;51.854;6.622;2024-02-15T14:27:31;7.53;;;2.92;;
14203;SDS011;7185;51.854;6.622;2024-02-15T14:30:03;11.48;;;3.13;;
14203;SDS011;7185;51.854;6.622;2024-02-15T14:32:53;9.23;;;3.35;;
14203;SDS011;7185;51.854;6.622;2024-02-15T14:35:32;6.03;;;3.13;;
14203;SDS011;7185;51.854;6.622;2024-02-15T14:38:06;12.27;;;3.60;;
14203;SDS011;7185;51.854;6.622;2024-02-15T14:40:41;6.50;;;2.95;;
14203;SDS011;7185;51.854;6.622;2024-02-15T14:43:15;9.82;;;3.10;;
14203;SDS011;7185;51.854;6.622;2024-02-15T14:45:47;9.23;;;3.92;;
14203;SDS011;7185;51.854;6.622;2024-02-15T14:48:20;7.60;;;3.00;;
14203;SDS011;7185;51.854;6.622;2024-02-15T14:50:53;13.52;;;3.28;;
14203;SDS011;7185;51.854;6.622;2024-02-15T14:53:26;8.93;;;3.28;;
14203;SDS011;7185;51.854;6.622;2024-02-15T14:56:00;10.43;;;2.85;;
14203;SDS011;7185;51.854;6.622;2024-02-15T14:58:37;10.23;;;3.28;;
14203;SDS011;7185;51.854;6.622;2024-02-15T15:01:10;15.93;;;3.05;;
14203;SDS011;7185;51.854;6.622;2024-02-15T15:03:43;8.80;;;2.88;;
14203;SDS011;7185;51.854;6.622;2024-02-15T15:06:26;10.35;;;2.88;;
14203;SDS011;7185;51.854;6.622;2024-02-15T15:09:15;8.88;;;3.10;;
14203;SDS011;7185;51.854;6.622;2024-02-15T15:12:05;8.93;;;2.28;;
14203;SDS011;7185;51.854;6.622;2024-02-15T15:14:54;7.43;;;2.40;;
14203;SDS011;7185;51.854;6.622;2024-02-15T15:17:26;7.13;;;2.35;;
14203;SDS011;7185;51.854;6.622;2024-02-15T15:19:58;6.13;;;2.83;;
14203;SDS011;7185;51.854;6.622;2024-02-15T15:22:32;7.55;;;2.63;;
14203;SDS011;7185;51.854;6.622;2024-02-15T15:25:07;7.57;;;3.10;;
14203;SDS011;7185;51.854;6.622;2024-02-15T15:27:40;8.05;;;2.97;;
14203;SDS011;7185;51.854;6.622;2024-02-15T15:30:12;6.45;;;3.00;;
14203;SDS011;7185;51.854;6.622;2024-02-15T15:32:46;8.35;;;2.80;;
14203;SDS011;7185;51.854;6.622;2024-02-15T15:35:19;8.65;;;2.83;;
14203;SDS011;7185;51.854;6.622;2024-02-15T15:37:53;7.70;;;2.88;;
14203;SDS011;7185;51.854;6.622;2024-02-15T15:40:25;9.48;;;3.28;;
14203;SDS011;7185;51.854;6.622;2024-02-15T15:42:57;9.10;;;3.67;;
14203;SDS011;7185;51.854;6.622;2024-02-15T15:45:29;7.25;;;2.95;;